sensor_id;sensor_type;location;lat;lon;timestamp;temperature;humidity
5697;DHT22;2873;50.966;7.210;2022-12-07T00:02:15;6.20;99.90
5697;DHT22;2873;50.966;7.210;2022-12-07T00:04:40;6.20;99.90
5697;DHT22;2873;50.966;7.210;2022-12-07T00:07:06;6.20;99.90
5697;DHT22;2873;50.966;7.210;2022-12-07T00:09:31;6.10;99.90
5697;DHT22;2873;50.966;7.210;2022-12-07T00:11:57;6.20;99.90
5697;DHT22;2873;50.966;7.210;2022-12-07T00:14:22;6.20;99.90
5697;DHT22;2873;50.966;7.210;2022-12-07T00:16:51;6.30;99.90
5697;DHT22;2873;50.966;7.210;2022-12-07T00:19:17;6.20;99.90
5697;DHT22;2873;50.966;7.210;2022-12-07T00:21:43;6.30;99.90
5697;DHT22;2873;50.966;7.210;2022-12-07T00:24:10;6.10;99.90
5697;DHT22;2873;50.966;7.210;2022-12-07T00:26:38;6.20;99.90
5697;DHT22;2873;50.966;7.210;2022-12-07T00:29:18;6.20;99.90
5697;DHT22;2873;50.966;7.210;2022-12-07T00:31:44;6.20;99.90
5697;DHT22;2873;50.966;7.210;2022-12-07T00:34:18;6.10;99.90
5697;DHT22;2873;50.966;7.210;2022-12-07T00:36:44;6.10;99.90
5697;DHT22;2873;50.966;7.210;2022-12-07T00:39:10;6.20;99.90
5697;DHT22;2873;50.966;7.210;2022-12-07T00:41:36;6.10;99.90
5697;DHT22;2873;50.966;7.210;2022-12-07T00:44:02;6.20;99.90
5697;DHT22;2873;50.966;7.210;2022-12-07T00:46:29;6.10;99.90
5697;DHT22;2873;50.966;7.210;2022-12-07T00:48:55;6.20;99.90
5697;DHT22;2873;50.966;7.210;2022-12-07T00:51:23;6.20;99.90
5697;DHT22;2873;50.966;7.210;2022-12-07T00:53:49;6.20;99.90
5697;DHT22;2873;50.966;7.210;2022-12-07T00:56:18;6.20;99.90
5697;DHT22;2873;50.966;7.210;2022-12-07T00:58:44;6.30;99.90
5697;DHT22;2873;50.966;7.210;2022-12-07T01:01:14;6.30;99.90
5697;DHT22;2873;50.966;7.210;2022-12-07T01:03:39;6.30;99.90
5697;DHT22;2873;50.966;7.210;2022-12-07T01:06:05;6.30;99.90
5697;DHT22;2873;50.966;7.210;2022-12-07T01:08:31;6.30;99.90
5697;DHT22;2873;50.966;7.210;2022-12-07T01:11:05;6.30;99.90
5697;DHT22;2873;50.966;7.210;2022-12-07T01:13:32;6.20;99.90
5697;DHT22;2873;50.966;7.210;2022-12-07T01:15:59;6.30;99.90
5697;DHT22;2873;50.966;7.210;2022-12-07T01:18:27;6.20;99.90
5697;DHT22;2873;50.966;7.210;2022-12-07T01:21:14;6.10;99.90
5697;DHT22;2873;50.966;7.210;2022-12-07T01:23:41;6.20;99.90
5697;DHT22;2873;50.966;7.210;2022-12-07T01:26:11;6.20;99.90
5697;DHT22;2873;50.966;7.210;2022-12-07T01:28:38;6.20;99.90
5697;DHT22;2873;50.966;7.210;2022-12-07T01:31:07;6.30;99.90
5697;DHT22;2873;50.966;7.210;2022-12-07T01:33:35;6.30;99.90
5697;DHT22;2873;50.966;7.210;2022-12-07T01:36:07;6.30;99.90
5697;DHT22;2873;50.966;7.210;2022-12-07T01:38:33;6.30;99.90
5697;DHT22;2873;50.966;7.210;2022-12-07T01:41:00;6.20;99.90
5697;DHT22;2873;50.966;7.210;2022-12-07T01:43:27;6.20;99.90
5697;DHT22;2873;50.966;7.210;2022-12-07T01:45:54;6.20;99.90
5697;DHT22;2873;50.966;7.210;2022-12-07T01:48:37;6.30;99.90
5697;DHT22;2873;50.966;7.210;2022-12-07T01:51:11;6.30;99.90
5697;DHT22;2873;50.966;7.210;2022-12-07T01:53:42;6.20;99.90
5697;DHT22;2873;50.966;7.210;2022-12-07T01:56:10;6.30;99.90
5697;DHT22;2873;50.966;7.210;2022-12-07T01:58:36;6.20;99.90
5697;DHT22;2873;50.966;7.210;2022-12-07T02:01:03;6.20;99.90
5697;DHT22;2873;50.966;7.210;2022-12-07T02:03:47;6.20;99.90
5697;DHT22;2873;50.966;7.210;2022-12-07T02:06:17;6.20;99.90
5697;DHT22;2873;50.966;7.210;2022-12-07T02:08:44;6.20;99.90
5697;DHT22;2873;50.966;7.210;2022-12-07T02:11:10;6.20;99.90
5697;DHT22;2873;50.966;7.210;2022-12-07T02:13:38;6.20;99.90
5697;DHT22;2873;50.966;7.210;2022-12-07T02:18:50;6.20;99.90
5697;DHT22;2873;50.966;7.210;2022-12-07T02:21:30;6.20;99.90
5697;DHT22;2873;50.966;7.210;2022-12-07T02:27:01;6.20;99.90
5697;DHT22;2873;50.966;7.210;2022-12-07T02:29:50;6.20;99.90
5697;DHT22;2873;50.966;7.210;2022-12-07T02:32:26;6.20;99.90
5697;DHT22;2873;50.966;7.210;2022-12-07T02:35:06;6.10;99.90
5697;DHT22;2873;50.966;7.210;2022-12-07T02:37:47;6.20;99.90
5697;DHT22;2873;50.966;7.210;2022-12-07T02:40:41;6.10;99.90
5697;DHT22;2873;50.966;7.210;2022-12-07T02:43:19;6.10;99.90
5697;DHT22;2873;50.966;7.210;2022-12-07T02:45:47;6.10;99.90
5697;DHT22;2873;50.966;7.210;2022-12-07T02:48:17;6.00;99.90
5697;DHT22;2873;50.966;7.210;2022-12-07T02:50:48;6.00;99.90
5697;DHT22;2873;50.966;7.210;2022-12-07T02:55:55;6.10;99.90
5697;DHT22;2873;50.966;7.210;2022-12-07T02:58:36;6.10;99.90
5697;DHT22;2873;50.966;7.210;2022-12-07T03:07:26;6.10;99.90
5697;DHT22;2873;50.966;7.210;2022-12-07T03:12:31;6.20;99.90
5697;DHT22;2873;50.966;7.210;2022-12-07T03:15:08;6.20;99.90
5697;DHT22;2873;50.966;7.210;2022-12-07T03:17:38;6.10;99.90
5697;DHT22;2873;50.966;7.210;2022-12-07T03:20:06;6.00;99.90
5697;DHT22;2873;50.966;7.210;2022-12-07T03:22:35;6.10;99.90
5697;DHT22;2873;50.966;7.210;2022-12-07T03:25:06;6.20;99.90
5697;DHT22;2873;50.966;7.210;2022-12-07T03:30:05;6.30;99.90
5697;DHT22;2873;50.966;7.210;2022-12-07T03:32:42;6.30;99.90
5697;DHT22;2873;50.966;7.210;2022-12-07T03:35:25;6.10;99.90
5697;DHT22;2873;50.966;7.210;2022-12-07T03:38:04;6.10;99.90
5697;DHT22;2873;50.966;7.210;2022-12-07T03:40:35;6.10;99.90
5697;DHT22;2873;50.966;7.210;2022-12-07T03:43:03;6.20;99.90
5697;DHT22;2873;50.966;7.210;2022-12-07T03:45:40;6.20;99.90
5697;DHT22;2873;50.966;7.210;2022-12-07T03:48:22;6.30;99.90
5697;DHT22;2873;50.966;7.210;2022-12-07T03:51:06;6.30;99.90
5697;DHT22;2873;50.966;7.210;2022-12-07T03:56:20;6.40;99.90
5697;DHT22;2873;50.966;7.210;2022-12-07T03:58:47;6.40;99.90
5697;DHT22;2873;50.966;7.210;2022-12-07T04:01:13;6.40;99.90
5697;DHT22;2873;50.966;7.210;2022-12-07T04:03:39;6.40;99.90
5697;DHT22;2873;50.966;7.210;2022-12-07T04:06:04;6.40;99.90
5697;DHT22;2873;50.966;7.210;2022-12-07T04:08:30;6.40;99.90
5697;DHT22;2873;50.966;7.210;2022-12-07T04:10:56;6.40;99.90
5697;DHT22;2873;50.966;7.210;2022-12-07T04:13:21;6.50;99.90
5697;DHT22;2873;50.966;7.210;2022-12-07T04:15:47;6.50;99.90
5697;DHT22;2873;50.966;7.210;2022-12-07T04:18:12;6.50;99.90
5697;DHT22;2873;50.966;7.210;2022-12-07T04:20:38;6.40;99.90
5697;DHT22;2873;50.966;7.210;2022-12-07T04:23:03;6.50;99.90
5697;DHT22;2873;50.966;7.210;2022-12-07T04:25:29;6.50;99.90
5697;DHT22;2873;50.966;7.210;2022-12-07T04:27:54;6.50;99.90
5697;DHT22;2873;50.966;7.210;2022-12-07T04:30:20;6.50;99.90
5697;DHT22;2873;50.966;7.210;2022-12-07T04:32:46;6.50;99.90
5697;DHT22;2873;50.966;7.210;2022-12-07T04:35:11;6.50;99.90
5697;DHT22;2873;50.966;7.210;2022-12-07T04:37:37;6.50;99.90
5697;DHT22;2873;50.966;7.210;2022-12-07T04:40:06;6.50;99.90
5697;DHT22;2873;50.966;7.210;2022-12-07T04:42:32;6.50;99.90
5697;DHT22;2873;50.966;7.210;2022-12-07T04:44:58;6.50;99.90
5697;DHT22;2873;50.966;7.210;2022-12-07T04:47:23;6.50;99.90
5697;DHT22;2873;50.966;7.210;2022-12-07T04:49:49;6.50;99.90
5697;DHT22;2873;50.966;7.210;2022-12-07T04:52:14;6.50;99.90
5697;DHT22;2873;50.966;7.210;2022-12-07T04:54:40;6.50;99.90
5697;DHT22;2873;50.966;7.210;2022-12-07T04:57:05;6.50;99.90
5697;DHT22;2873;50.966;7.210;2022-12-07T04:59:31;6.50;99.90
5697;DHT22;2873;50.966;7.210;2022-12-07T05:01:56;6.50;99.90
5697;DHT22;2873;50.966;7.210;2022-12-07T05:04:22;6.50;99.90
5697;DHT22;2873;50.966;7.210;2022-12-07T05:06:47;6.50;99.90
5697;DHT22;2873;50.966;7.210;2022-12-07T05:09:13;6.40;99.90
5697;DHT22;2873;50.966;7.210;2022-12-07T05:11:38;6.40;99.90
5697;DHT22;2873;50.966;7.210;2022-12-07T05:14:16;6.50;99.90
5697;DHT22;2873;50.966;7.210;2022-12-07T05:16:44;6.50;99.90
5697;DHT22;2873;50.966;7.210;2022-12-07T05:19:10;6.50;99.90
5697;DHT22;2873;50.966;7.210;2022-12-07T05:21:36;6.50;99.90
5697;DHT22;2873;50.966;7.210;2022-12-07T05:24:02;6.50;99.90
5697;DHT22;2873;50.966;7.210;2022-12-07T05:26:28;6.40;99.90
5697;DHT22;2873;50.966;7.210;2022-12-07T05:28:55;6.40;99.90
5697;DHT22;2873;50.966;7.210;2022-12-07T05:31:21;6.40;99.90
5697;DHT22;2873;50.966;7.210;2022-12-07T05:33:47;6.50;99.90
5697;DHT22;2873;50.966;7.210;2022-12-07T05:36:13;6.50;99.90
5697;DHT22;2873;50.966;7.210;2022-12-07T05:38:39;6.40;99.90
5697;DHT22;2873;50.966;7.210;2022-12-07T05:41:06;6.40;99.90
5697;DHT22;2873;50.966;7.210;2022-12-07T05:43:32;6.50;99.90
5697;DHT22;2873;50.966;7.210;2022-12-07T05:45:58;6.50;99.90
5697;DHT22;2873;50.966;7.210;2022-12-07T05:48:24;6.50;99.90
5697;DHT22;2873;50.966;7.210;2022-12-07T05:50:50;6.50;99.90
5697;DHT22;2873;50.966;7.210;2022-12-07T05:53:16;6.50;99.90
5697;DHT22;2873;50.966;7.210;2022-12-07T05:55:42;6.40;99.90
5697;DHT22;2873;50.966;7.210;2022-12-07T05:58:07;6.40;99.90
5697;DHT22;2873;50.966;7.210;2022-12-07T06:00:53;6.40;99.90
5697;DHT22;2873;50.966;7.210;2022-12-07T06:03:19;6.40;99.90
5697;DHT22;2873;50.966;7.210;2022-12-07T06:05:44;6.40;99.90
5697;DHT22;2873;50.966;7.210;2022-12-07T06:08:10;6.40;99.90
5697;DHT22;2873;50.966;7.210;2022-12-07T06:10:35;6.30;99.90
5697;DHT22;2873;50.966;7.210;2022-12-07T06:13:01;6.20;99.90
5697;DHT22;2873;50.966;7.210;2022-12-07T06:15:26;6.30;99.90
5697;DHT22;2873;50.966;7.210;2022-12-07T06:17:52;6.30;99.90
5697;DHT22;2873;50.966;7.210;2022-12-07T06:20:17;6.30;99.90
5697;DHT22;2873;50.966;7.210;2022-12-07T06:22:43;6.30;99.90
5697;DHT22;2873;50.966;7.210;2022-12-07T06:25:08;6.30;99.90
5697;DHT22;2873;50.966;7.210;2022-12-07T06:27:35;6.30;99.90
5697;DHT22;2873;50.966;7.210;2022-12-07T06:30:00;6.30;99.90
5697;DHT22;2873;50.966;7.210;2022-12-07T06:32:32;6.40;99.90
5697;DHT22;2873;50.966;7.210;2022-12-07T06:34:57;6.30;99.90
5697;DHT22;2873;50.966;7.210;2022-12-07T06:37:23;6.40;99.90
5697;DHT22;2873;50.966;7.210;2022-12-07T06:39:48;6.40;99.90
5697;DHT22;2873;50.966;7.210;2022-12-07T06:42:14;6.30;99.90
5697;DHT22;2873;50.966;7.210;2022-12-07T06:44:39;6.40;99.90
5697;DHT22;2873;50.966;7.210;2022-12-07T06:47:05;6.40;99.90
5697;DHT22;2873;50.966;7.210;2022-12-07T06:49:33;6.40;99.90
5697;DHT22;2873;50.966;7.210;2022-12-07T06:51:59;6.40;99.90
5697;DHT22;2873;50.966;7.210;2022-12-07T06:54:24;6.50;99.90
5697;DHT22;2873;50.966;7.210;2022-12-07T06:56:50;6.40;99.90
5697;DHT22;2873;50.966;7.210;2022-12-07T06:59:15;6.40;99.90
5697;DHT22;2873;50.966;7.210;2022-12-07T07:01:41;6.40;99.90
5697;DHT22;2873;50.966;7.210;2022-12-07T07:04:07;6.40;99.90
5697;DHT22;2873;50.966;7.210;2022-12-07T07:06:32;6.50;99.90
5697;DHT22;2873;50.966;7.210;2022-12-07T07:08:58;6.40;99.90
5697;DHT22;2873;50.966;7.210;2022-12-07T07:11:24;6.40;99.90
5697;DHT22;2873;50.966;7.210;2022-12-07T07:13:49;6.40;99.90
5697;DHT22;2873;50.966;7.210;2022-12-07T07:16:15;6.40;99.90
5697;DHT22;2873;50.966;7.210;2022-12-07T07:18:40;6.40;99.90
5697;DHT22;2873;50.966;7.210;2022-12-07T07:21:06;6.40;99.90
5697;DHT22;2873;50.966;7.210;2022-12-07T07:23:31;6.40;99.90
5697;DHT22;2873;50.966;7.210;2022-12-07T07:25:57;6.40;99.90
5697;DHT22;2873;50.966;7.210;2022-12-07T07:28:23;6.30;99.90
5697;DHT22;2873;50.966;7.210;2022-12-07T07:30:48;6.30;99.90
5697;DHT22;2873;50.966;7.210;2022-12-07T07:33:14;6.30;99.90
5697;DHT22;2873;50.966;7.210;2022-12-07T07:35:40;6.30;99.90
5697;DHT22;2873;50.966;7.210;2022-12-07T07:38:06;6.30;99.90
5697;DHT22;2873;50.966;7.210;2022-12-07T07:40:32;6.30;99.90
5697;DHT22;2873;50.966;7.210;2022-12-07T07:42:58;6.40;99.90
5697;DHT22;2873;50.966;7.210;2022-12-07T07:45:25;6.40;99.90
5697;DHT22;2873;50.966;7.210;2022-12-07T07:47:51;6.40;99.90
5697;DHT22;2873;50.966;7.210;2022-12-07T07:50:17;6.10;99.90
5697;DHT22;2873;50.966;7.210;2022-12-07T07:52:43;6.20;99.90
5697;DHT22;2873;50.966;7.210;2022-12-07T07:55:09;6.20;99.90
5697;DHT22;2873;50.966;7.210;2022-12-07T07:57:35;6.20;99.90
5697;DHT22;2873;50.966;7.210;2022-12-07T08:00:04;6.20;99.90
5697;DHT22;2873;50.966;7.210;2022-12-07T08:02:30;6.00;99.90
5697;DHT22;2873;50.966;7.210;2022-12-07T08:04:55;6.00;99.90
5697;DHT22;2873;50.966;7.210;2022-12-07T08:07:21;6.10;99.90
5697;DHT22;2873;50.966;7.210;2022-12-07T08:09:47;6.10;99.90
5697;DHT22;2873;50.966;7.210;2022-12-07T08:12:12;6.20;99.90
5697;DHT22;2873;50.966;7.210;2022-12-07T08:14:38;6.20;99.90
5697;DHT22;2873;50.966;7.210;2022-12-07T08:17:03;6.20;99.90
5697;DHT22;2873;50.966;7.210;2022-12-07T08:19:29;6.20;99.90
5697;DHT22;2873;50.966;7.210;2022-12-07T08:21:55;6.30;99.90
5697;DHT22;2873;50.966;7.210;2022-12-07T08:24:21;6.30;99.90
5697;DHT22;2873;50.966;7.210;2022-12-07T08:26:47;6.20;99.90
5697;DHT22;2873;50.966;7.210;2022-12-07T08:29:13;6.30;99.90
5697;DHT22;2873;50.966;7.210;2022-12-07T08:31:39;6.30;99.90
5697;DHT22;2873;50.966;7.210;2022-12-07T08:34:05;6.30;99.90
5697;DHT22;2873;50.966;7.210;2022-12-07T08:36:30;6.30;99.90
5697;DHT22;2873;50.966;7.210;2022-12-07T08:38:56;6.30;99.90
5697;DHT22;2873;50.966;7.210;2022-12-07T08:41:21;6.30;99.90
5697;DHT22;2873;50.966;7.210;2022-12-07T08:43:47;6.30;99.90
5697;DHT22;2873;50.966;7.210;2022-12-07T08:49:06;6.30;99.90
5697;DHT22;2873;50.966;7.210;2022-12-07T08:51:33;6.30;99.90
5697;DHT22;2873;50.966;7.210;2022-12-07T08:54:01;6.30;99.90
5697;DHT22;2873;50.966;7.210;2022-12-07T08:56:28;6.30;99.90
5697;DHT22;2873;50.966;7.210;2022-12-07T08:58:54;6.40;99.90
5697;DHT22;2873;50.966;7.210;2022-12-07T09:01:20;6.30;99.90
5697;DHT22;2873;50.966;7.210;2022-12-07T09:03:45;6.40;99.90
5697;DHT22;2873;50.966;7.210;2022-12-07T09:06:11;6.40;99.90
5697;DHT22;2873;50.966;7.210;2022-12-07T09:08:40;6.30;99.90
5697;DHT22;2873;50.966;7.210;2022-12-07T09:11:07;6.40;99.90
5697;DHT22;2873;50.966;7.210;2022-12-07T09:13:32;6.30;99.90
5697;DHT22;2873;50.966;7.210;2022-12-07T09:15:58;6.30;99.90
5697;DHT22;2873;50.966;7.210;2022-12-07T09:18:23;6.30;99.90
5697;DHT22;2873;50.966;7.210;2022-12-07T09:20:50;6.20;99.90
5697;DHT22;2873;50.966;7.210;2022-12-07T09:23:16;6.30;99.90
5697;DHT22;2873;50.966;7.210;2022-12-07T09:25:41;6.30;99.90
5697;DHT22;2873;50.966;7.210;2022-12-07T09:28:07;6.40;99.90
5697;DHT22;2873;50.966;7.210;2022-12-07T09:30:32;6.40;99.90
5697;DHT22;2873;50.966;7.210;2022-12-07T09:32:58;6.40;99.90
5697;DHT22;2873;50.966;7.210;2022-12-07T09:35:25;6.50;99.90
5697;DHT22;2873;50.966;7.210;2022-12-07T09:37:50;6.60;99.90
5697;DHT22;2873;50.966;7.210;2022-12-07T09:40:18;6.50;99.90
5697;DHT22;2873;50.966;7.210;2022-12-07T09:42:48;6.70;99.90
5697;DHT22;2873;50.966;7.210;2022-12-07T09:45:18;6.70;99.90
5697;DHT22;2873;50.966;7.210;2022-12-07T09:47:45;6.60;99.90
5697;DHT22;2873;50.966;7.210;2022-12-07T09:50:17;6.50;99.90
5697;DHT22;2873;50.966;7.210;2022-12-07T09:52:45;6.60;99.90
5697;DHT22;2873;50.966;7.210;2022-12-07T09:55:16;6.60;99.90
5697;DHT22;2873;50.966;7.210;2022-12-07T09:57:42;6.60;99.90
5697;DHT22;2873;50.966;7.210;2022-12-07T10:00:17;6.70;99.90
5697;DHT22;2873;50.966;7.210;2022-12-07T10:02:46;6.60;99.90
5697;DHT22;2873;50.966;7.210;2022-12-07T10:05:22;6.60;99.90
5697;DHT22;2873;50.966;7.210;2022-12-07T10:07:49;6.40;99.90
5697;DHT22;2873;50.966;7.210;2022-12-07T10:10:19;6.60;99.90
5697;DHT22;2873;50.966;7.210;2022-12-07T10:12:57;6.60;99.90
5697;DHT22;2873;50.966;7.210;2022-12-07T10:15:37;6.50;99.90
5697;DHT22;2873;50.966;7.210;2022-12-07T10:18:30;6.50;99.90
5697;DHT22;2873;50.966;7.210;2022-12-07T10:23:40;6.60;99.90
5697;DHT22;2873;50.966;7.210;2022-12-07T10:31:41;6.60;99.90
5697;DHT22;2873;50.966;7.210;2022-12-07T10:34:24;6.60;99.90
5697;DHT22;2873;50.966;7.210;2022-12-07T10:36:51;6.70;99.90
5697;DHT22;2873;50.966;7.210;2022-12-07T10:39:20;6.70;99.90
5697;DHT22;2873;50.966;7.210;2022-12-07T10:42:04;6.70;99.90
5697;DHT22;2873;50.966;7.210;2022-12-07T10:44:33;6.70;99.90
5697;DHT22;2873;50.966;7.210;2022-12-07T10:53:06;6.80;99.90
5697;DHT22;2873;50.966;7.210;2022-12-07T10:55:46;6.90;99.90
5697;DHT22;2873;50.966;7.210;2022-12-07T11:03:39;6.80;99.90
5697;DHT22;2873;50.966;7.210;2022-12-07T11:11:36;6.80;99.90
5697;DHT22;2873;50.966;7.210;2022-12-07T11:21:58;6.90;99.90
5697;DHT22;2873;50.966;7.210;2022-12-07T11:34:59;7.10;99.90
5697;DHT22;2873;50.966;7.210;2022-12-07T11:37:34;7.10;99.90
5697;DHT22;2873;50.966;7.210;2022-12-07T11:43:22;7.10;99.90
5697;DHT22;2873;50.966;7.210;2022-12-07T11:46:14;7.20;99.90
5697;DHT22;2873;50.966;7.210;2022-12-07T11:51:33;7.10;99.90
5697;DHT22;2873;50.966;7.210;2022-12-07T11:54:05;7.10;99.90
5697;DHT22;2873;50.966;7.210;2022-12-07T11:56:37;7.20;99.90
5697;DHT22;2873;50.966;7.210;2022-12-07T11:59:12;7.10;99.90
5697;DHT22;2873;50.966;7.210;2022-12-07T12:06:59;7.20;99.90
5697;DHT22;2873;50.966;7.210;2022-12-07T12:09:29;7.20;99.90
5697;DHT22;2873;50.966;7.210;2022-12-07T12:20:26;7.40;99.90
5697;DHT22;2873;50.966;7.210;2022-12-07T12:25:36;7.80;99.90
5697;DHT22;2873;50.966;7.210;2022-12-07T12:28:03;7.90;99.90
5697;DHT22;2873;50.966;7.210;2022-12-07T12:30:37;7.90;99.90
5697;DHT22;2873;50.966;7.210;2022-12-07T12:33:27;7.90;99.90
5697;DHT22;2873;50.966;7.210;2022-12-07T12:46:56;7.80;99.90
5697;DHT22;2873;50.966;7.210;2022-12-07T12:49:31;7.80;99.90
5697;DHT22;2873;50.966;7.210;2022-12-07T12:52:00;7.90;99.90
5697;DHT22;2873;50.966;7.210;2022-12-07T12:54:33;7.90;99.90
5697;DHT22;2873;50.966;7.210;2022-12-07T13:04:57;8.70;99.90
5697;DHT22;2873;50.966;7.210;2022-12-07T13:15:53;8.70;99.90
5697;DHT22;2873;50.966;7.210;2022-12-07T13:26:22;8.50;99.90
5697;DHT22;2873;50.966;7.210;2022-12-07T13:31:47;8.30;99.90
5697;DHT22;2873;50.966;7.210;2022-12-07T13:36:57;8.20;99.90
5697;DHT22;2873;50.966;7.210;2022-12-07T13:39:25;8.10;99.90
5697;DHT22;2873;50.966;7.210;2022-12-07T13:44:18;8.00;99.90
5697;DHT22;2873;50.966;7.210;2022-12-07T13:49:50;7.70;99.90
5697;DHT22;2873;50.966;7.210;2022-12-07T13:52:17;7.70;99.90
5697;DHT22;2873;50.966;7.210;2022-12-07T13:54:57;7.70;99.90
5697;DHT22;2873;50.966;7.210;2022-12-07T13:57:28;7.70;99.90
5697;DHT22;2873;50.966;7.210;2022-12-07T13:59:54;7.60;99.90
5697;DHT22;2873;50.966;7.210;2022-12-07T14:02:23;7.50;99.90
5697;DHT22;2873;50.966;7.210;2022-12-07T14:04:50;7.50;99.90
5697;DHT22;2873;50.966;7.210;2022-12-07T14:07:26;7.50;99.90
5697;DHT22;2873;50.966;7.210;2022-12-07T14:09:59;7.50;99.90
5697;DHT22;2873;50.966;7.210;2022-12-07T14:12:27;7.40;99.90
5697;DHT22;2873;50.966;7.210;2022-12-07T14:14:53;7.40;99.90
5697;DHT22;2873;50.966;7.210;2022-12-07T14:17:22;7.40;99.90
5697;DHT22;2873;50.966;7.210;2022-12-07T14:19:49;7.40;99.90
5697;DHT22;2873;50.966;7.210;2022-12-07T14:22:30;7.30;99.90
5697;DHT22;2873;50.966;7.210;2022-12-07T14:25:19;7.40;99.90
5697;DHT22;2873;50.966;7.210;2022-12-07T14:28:03;7.30;99.90
5697;DHT22;2873;50.966;7.210;2022-12-07T14:30:30;7.30;99.90
5697;DHT22;2873;50.966;7.210;2022-12-07T14:33:00;7.30;99.90
5697;DHT22;2873;50.966;7.210;2022-12-07T14:35:26;7.20;99.90
5697;DHT22;2873;50.966;7.210;2022-12-07T14:37:52;7.20;99.90
5697;DHT22;2873;50.966;7.210;2022-12-07T14:40:21;7.20;99.90
5697;DHT22;2873;50.966;7.210;2022-12-07T14:42:48;7.20;99.90
5697;DHT22;2873;50.966;7.210;2022-12-07T14:45:17;7.20;99.90
5697;DHT22;2873;50.966;7.210;2022-12-07T14:47:44;7.20;99.90
5697;DHT22;2873;50.966;7.210;2022-12-07T14:50:16;7.20;99.90
5697;DHT22;2873;50.966;7.210;2022-12-07T14:52:46;7.30;99.90
5697;DHT22;2873;50.966;7.210;2022-12-07T14:55:25;7.30;99.90
5697;DHT22;2873;50.966;7.210;2022-12-07T14:57:51;7.30;99.90
5697;DHT22;2873;50.966;7.210;2022-12-07T15:00:18;7.20;99.90
5697;DHT22;2873;50.966;7.210;2022-12-07T15:02:45;7.20;99.90
5697;DHT22;2873;50.966;7.210;2022-12-07T15:05:11;7.30;99.90
5697;DHT22;2873;50.966;7.210;2022-12-07T15:07:37;7.20;99.90
5697;DHT22;2873;50.966;7.210;2022-12-07T15:10:03;7.30;99.90
5697;DHT22;2873;50.966;7.210;2022-12-07T15:12:29;7.20;99.90
5697;DHT22;2873;50.966;7.210;2022-12-07T15:14:54;7.20;99.90
5697;DHT22;2873;50.966;7.210;2022-12-07T15:17:20;7.20;99.90
5697;DHT22;2873;50.966;7.210;2022-12-07T15:19:45;7.20;99.90
5697;DHT22;2873;50.966;7.210;2022-12-07T15:22:11;7.20;99.90
5697;DHT22;2873;50.966;7.210;2022-12-07T15:24:37;7.30;99.90
5697;DHT22;2873;50.966;7.210;2022-12-07T15:27:03;7.30;99.90
5697;DHT22;2873;50.966;7.210;2022-12-07T15:29:28;7.20;99.90
5697;DHT22;2873;50.966;7.210;2022-12-07T15:31:55;7.20;99.90
5697;DHT22;2873;50.966;7.210;2022-12-07T15:34:22;7.20;99.90
5697;DHT22;2873;50.966;7.210;2022-12-07T15:36:48;7.20;99.90
5697;DHT22;2873;50.966;7.210;2022-12-07T15:39:13;7.20;99.90
5697;DHT22;2873;50.966;7.210;2022-12-07T15:41:39;7.20;99.90
5697;DHT22;2873;50.966;7.210;2022-12-07T15:44:04;7.20;99.90
5697;DHT22;2873;50.966;7.210;2022-12-07T15:46:49;7.20;99.90
5697;DHT22;2873;50.966;7.210;2022-12-07T15:49:16;7.20;99.90
5697;DHT22;2873;50.966;7.210;2022-12-07T15:51:43;7.20;99.90
5697;DHT22;2873;50.966;7.210;2022-12-07T15:54:27;7.20;99.90
5697;DHT22;2873;50.966;7.210;2022-12-07T15:56:53;7.20;99.90
5697;DHT22;2873;50.966;7.210;2022-12-07T15:59:19;7.20;99.90
5697;DHT22;2873;50.966;7.210;2022-12-07T16:01:45;7.20;99.90
5697;DHT22;2873;50.966;7.210;2022-12-07T16:04:11;7.20;99.90
5697;DHT22;2873;50.966;7.210;2022-12-07T16:06:37;7.00;99.90
5697;DHT22;2873;50.966;7.210;2022-12-07T16:09:03;7.00;99.90
5697;DHT22;2873;50.966;7.210;2022-12-07T16:11:29;7.00;99.90
5697;DHT22;2873;50.966;7.210;2022-12-07T16:13:54;6.80;99.90
5697;DHT22;2873;50.966;7.210;2022-12-07T16:16:20;6.80;99.90
5697;DHT22;2873;50.966;7.210;2022-12-07T16:18:48;6.80;99.90
5697;DHT22;2873;50.966;7.210;2022-12-07T16:21:14;6.70;99.90
5697;DHT22;2873;50.966;7.210;2022-12-07T16:23:40;6.80;99.90
5697;DHT22;2873;50.966;7.210;2022-12-07T16:26:15;6.80;99.90
5697;DHT22;2873;50.966;7.210;2022-12-07T16:28:41;6.80;99.90
5697;DHT22;2873;50.966;7.210;2022-12-07T16:31:12;6.70;99.90
5697;DHT22;2873;50.966;7.210;2022-12-07T16:33:39;6.70;99.90
5697;DHT22;2873;50.966;7.210;2022-12-07T16:36:07;6.80;99.90
5697;DHT22;2873;50.966;7.210;2022-12-07T16:38:33;6.70;99.90
5697;DHT22;2873;50.966;7.210;2022-12-07T16:40:59;6.60;99.90
5697;DHT22;2873;50.966;7.210;2022-12-07T16:43:24;6.60;99.90
5697;DHT22;2873;50.966;7.210;2022-12-07T16:45:50;6.60;99.90
5697;DHT22;2873;50.966;7.210;2022-12-07T16:48:16;6.60;99.90
5697;DHT22;2873;50.966;7.210;2022-12-07T16:50:43;6.50;99.90
5697;DHT22;2873;50.966;7.210;2022-12-07T16:53:09;6.50;99.90
5697;DHT22;2873;50.966;7.210;2022-12-07T16:55:37;6.50;99.90
5697;DHT22;2873;50.966;7.210;2022-12-07T16:58:02;6.40;99.90
5697;DHT22;2873;50.966;7.210;2022-12-07T17:00:28;6.40;99.90
5697;DHT22;2873;50.966;7.210;2022-12-07T17:02:53;6.40;99.90
5697;DHT22;2873;50.966;7.210;2022-12-07T17:05:20;6.30;99.90
5697;DHT22;2873;50.966;7.210;2022-12-07T17:07:46;6.30;99.90
5697;DHT22;2873;50.966;7.210;2022-12-07T17:10:11;6.20;99.90
5697;DHT22;2873;50.966;7.210;2022-12-07T17:12:37;6.20;99.90
5697;DHT22;2873;50.966;7.210;2022-12-07T17:15:03;6.30;99.90
5697;DHT22;2873;50.966;7.210;2022-12-07T17:17:53;6.20;99.90
5697;DHT22;2873;50.966;7.210;2022-12-07T17:20:20;6.20;99.90
5697;DHT22;2873;50.966;7.210;2022-12-07T17:22:47;6.20;99.90
5697;DHT22;2873;50.966;7.210;2022-12-07T17:25:13;6.20;99.90
5697;DHT22;2873;50.966;7.210;2022-12-07T17:27:39;6.20;99.90
5697;DHT22;2873;50.966;7.210;2022-12-07T17:30:05;6.20;99.90
5697;DHT22;2873;50.966;7.210;2022-12-07T17:32:31;6.20;99.90
5697;DHT22;2873;50.966;7.210;2022-12-07T17:34:57;6.20;99.90
5697;DHT22;2873;50.966;7.210;2022-12-07T17:37:23;6.20;99.90
5697;DHT22;2873;50.966;7.210;2022-12-07T17:39:48;6.20;99.90
5697;DHT22;2873;50.966;7.210;2022-12-07T17:42:15;6.20;99.90
5697;DHT22;2873;50.966;7.210;2022-12-07T17:44:59;6.20;99.90
5697;DHT22;2873;50.966;7.210;2022-12-07T17:47:25;6.20;99.90
5697;DHT22;2873;50.966;7.210;2022-12-07T17:49:50;6.20;99.90
5697;DHT22;2873;50.966;7.210;2022-12-07T17:52:16;6.20;99.90
5697;DHT22;2873;50.966;7.210;2022-12-07T17:55:01;6.20;99.90
5697;DHT22;2873;50.966;7.210;2022-12-07T17:57:26;6.20;99.90
5697;DHT22;2873;50.966;7.210;2022-12-07T17:59:52;6.20;99.90
5697;DHT22;2873;50.966;7.210;2022-12-07T18:02:19;6.30;99.90
5697;DHT22;2873;50.966;7.210;2022-12-07T18:04:45;6.30;99.90
5697;DHT22;2873;50.966;7.210;2022-12-07T18:07:12;6.30;99.90
5697;DHT22;2873;50.966;7.210;2022-12-07T18:09:37;6.30;99.90
5697;DHT22;2873;50.966;7.210;2022-12-07T18:12:03;6.30;99.90
5697;DHT22;2873;50.966;7.210;2022-12-07T18:14:29;6.30;99.90
5697;DHT22;2873;50.966;7.210;2022-12-07T18:16:55;6.30;99.90
5697;DHT22;2873;50.966;7.210;2022-12-07T18:19:20;6.30;99.90
5697;DHT22;2873;50.966;7.210;2022-12-07T18:21:46;6.30;99.90
5697;DHT22;2873;50.966;7.210;2022-12-07T18:24:13;6.30;99.90
5697;DHT22;2873;50.966;7.210;2022-12-07T18:26:40;6.30;99.90
5697;DHT22;2873;50.966;7.210;2022-12-07T18:29:07;6.30;99.90
5697;DHT22;2873;50.966;7.210;2022-12-07T18:31:35;6.30;99.90
5697;DHT22;2873;50.966;7.210;2022-12-07T18:34:03;6.30;99.90
5697;DHT22;2873;50.966;7.210;2022-12-07T18:36:29;6.20;99.90
5697;DHT22;2873;50.966;7.210;2022-12-07T18:38:55;6.20;99.90
5697;DHT22;2873;50.966;7.210;2022-12-07T18:41:20;6.10;99.90
5697;DHT22;2873;50.966;7.210;2022-12-07T18:43:46;6.10;99.90